Terminal Aerodrome Forecast
Issued by NWS Lake Charles, LA

Home | Current Version | Previous Version | Text Only | Print | Product List | Glossary On
Versions: 1 2 3 4 5 6 7 8 9 10 11 12 13 14 15 16 17 18 19 20
000
FTUS44 KLCH 271700
TAFLFT
TAF
KLFT 271726Z 2718/2818 05010KT P6SM FEW025
     FM280200 04008KT P6SM SCT025 SCT100
     FM280800 03005KT P6SM BKN020 BKN100=

USA.gov is the U.S. government's official web portal to all federal, state and local government web resources and services.